createdAt,value
2019-04-20T00:01:32.653Z,67.20
2019-04-20T00:04:01.033Z,66.70
2019-04-20T00:06:31.670Z,66.20
2019-04-20T00:09:09.694Z,66.30
2019-04-20T00:11:41.018Z,65.40
2019-04-20T00:14:07.160Z,65.50
2019-04-20T00:16:33.705Z,65.00
2019-04-20T00:19:04.076Z,65.60
2019-04-20T00:21:43.117Z,65.30
2019-04-20T00:24:15.731Z,66.40
2019-04-20T00:29:29.476Z,69.00
2019-04-20T00:31:55.464Z,69.60
2019-04-20T00:34:18.446Z,71.20
2019-04-20T00:36:41.457Z,71.00
2019-04-20T00:39:13.217Z,71.40
2019-04-20T00:41:48.027Z,72.60
2019-04-20T00:44:17.376Z,72.20
2019-04-20T00:46:58.544Z,73.10
2019-04-20T00:49:27.274Z,72.30
2019-04-20T00:52:07.636Z,71.70
2019-04-20T00:54:13.592Z,71.60
2019-04-20T00:56:43.406Z,73.20
2019-04-20T00:59:26.030Z,74.60
2019-04-20T01:02:00.586Z,75.30
2019-04-20T01:04:29.967Z,76.10
2019-04-20T01:07:06.212Z,78.30
2019-04-20T01:09:28.949Z,78.50
2019-04-20T01:11:58.583Z,78.80
2019-04-20T01:14:37.872Z,78.20
2019-04-20T01:17:05.685Z,77.60
2019-04-20T01:19:27.982Z,77.90
2019-04-20T01:22:03.642Z,78.90
2019-04-20T01:24:33.067Z,78.60
2019-04-20T01:27:00.833Z,79.10
2019-04-20T01:29:36.621Z,78.50
2019-04-20T01:32:10.436Z,79.90
2019-04-20T01:34:42.741Z,79.70
2019-04-20T01:37:18.134Z,79.70
2019-04-20T01:39:37.208Z,79.80
2019-04-20T01:42:04.455Z,79.30
2019-04-20T01:44:38.523Z,78.70
2019-04-20T01:47:06.515Z,82.00
2019-04-20T01:49:36.798Z,84.30
2019-04-20T01:52:12.993Z,84.60
2019-04-20T01:54:56.685Z,83.80
2019-04-20T01:57:33.132Z,83.10
2019-04-20T02:00:06.056Z,83.30
2019-04-20T02:02:34.314Z,83.00
2019-04-20T02:05:09.978Z,83.80
2019-04-20T02:07:37.530Z,84.00
2019-04-20T02:10:05.279Z,82.50
2019-04-20T02:12:35.665Z,82.00
2019-04-20T02:15:04.797Z,82.30
2019-04-20T02:17:40.747Z,82.50
2019-04-20T02:20:23.368Z,83.00
2019-04-20T02:22:51.839Z,82.70
2019-04-20T02:25:05.842Z,83.90
2019-04-20T02:27:45.417Z,85.80
2019-04-20T02:30:48.200Z,85.60
2019-04-20T02:33:27.467Z,84.80
2019-04-20T02:36:08.748Z,83.70
2019-04-20T02:38:46.570Z,82.80
2019-04-20T02:43:46.790Z,83.00
2019-04-20T02:45:57.775Z,82.40
2019-04-20T02:48:35.965Z,83.00
2019-04-20T02:51:06.258Z,84.50
2019-04-20T02:53:41.551Z,84.80
2019-04-20T02:58:45.004Z,86.80
2019-04-20T03:01:11.928Z,89.80
2019-04-20T03:03:30.691Z,90.90
2019-04-20T03:06:05.240Z,90.90
2019-04-20T03:08:40.608Z,90.40
2019-04-20T03:11:19.166Z,90.70
2019-04-20T03:13:45.620Z,90.30
2019-04-20T03:16:14.963Z,89.90
2019-04-20T03:18:41.516Z,89.70
2019-04-20T03:21:21.458Z,89.80
2019-04-20T03:23:54.190Z,88.50
2019-04-20T03:26:21.447Z,87.80
2019-04-20T03:28:50.256Z,88.10
2019-04-20T03:32:14.631Z,87.80
2019-04-20T03:36:57.181Z,87.90
2019-04-20T03:39:13.874Z,88.10
2019-04-20T03:41:34.507Z,88.10
2019-04-20T03:44:03.676Z,90.20
2019-04-20T03:46:36.691Z,90.40
2019-04-20T03:49:14.632Z,90.90
2019-04-20T03:51:53.440Z,91.10
2019-04-20T03:54:30.795Z,93.20
2019-04-20T03:57:29.320Z,93.80
2019-04-20T04:00:00.450Z,93.20
2019-04-20T04:03:05.636Z,94.10
2019-04-20T04:05:27.484Z,93.90
2019-04-20T04:07:46.782Z,93.40
2019-04-20T04:10:25.918Z,93.10
2019-04-20T04:13:05.134Z,92.80
2019-04-20T04:15:37.049Z,92.20
2019-04-20T04:18:17.143Z,91.70
2019-04-20T04:20:47.850Z,91.70
2019-04-20T04:23:31.139Z,91.30
2019-04-20T04:25:59.204Z,91.20
2019-04-20T04:28:28.610Z,91.30
2019-04-20T04:31:04.078Z,91.60
2019-04-20T04:36:03.110Z,91.30
2019-04-20T04:38:37.771Z,91.20
2019-04-20T04:41:16.977Z,91.10
2019-04-20T04:43:38.957Z,92.00
2019-04-20T04:45:48.896Z,92.50
2019-04-20T04:48:25.218Z,92.10
2019-04-20T04:50:56.099Z,91.90
2019-04-20T04:53:29.847Z,91.80
2019-04-20T04:55:56.461Z,92.00
2019-04-20T04:58:19.550Z,92.40
2019-04-20T05:00:49.347Z,92.20
2019-04-20T05:03:37.581Z,90.80
2019-04-20T05:06:13.659Z,85.80
2019-04-20T05:08:31.599Z,78.40
2019-04-20T05:10:56.228Z,72.40
2019-04-20T05:13:35.650Z,69.20
2019-04-20T05:16:07.589Z,63.50
2019-04-20T05:18:51.161Z,58.80
2019-04-20T05:21:21.936Z,55.10
2019-04-20T05:23:41.371Z,52.30
2019-04-20T05:26:36.323Z,55.70
2019-04-20T05:28:58.999Z,52.20
2019-04-20T05:31:24.465Z,51.00
2019-04-20T05:34:14.438Z,47.40
2019-04-20T05:36:44.857Z,44.00
2019-04-20T05:39:29.560Z,40.80
2019-04-20T05:41:53.213Z,41.20
2019-04-20T05:44:24.784Z,38.90
2019-04-20T05:47:02.862Z,37.40
2019-04-20T05:49:31.766Z,36.50
2019-04-20T05:52:10.423Z,34.40
2019-04-20T05:54:40.351Z,33.30
2019-04-20T05:57:14.446Z,32.40
2019-04-20T05:59:51.361Z,30.90
2019-04-20T06:02:15.974Z,30.60
2019-04-20T06:05:00.375Z,29.90
2019-04-20T06:07:27.078Z,29.10
2019-04-20T06:10:22.033Z,28.90
2019-04-20T06:12:53.150Z,28.70
2019-04-20T06:15:40.739Z,27.80
2019-04-20T06:18:06.321Z,26.60
2019-04-20T06:21:15.814Z,26.00
2019-04-20T06:23:42.765Z,26.10
2019-04-20T06:26:20.127Z,28.00
2019-04-20T06:28:36.612Z,29.80
2019-04-20T06:31:14.918Z,32.70
2019-04-20T06:36:46.978Z,30.10
2019-04-20T06:39:32.634Z,32.80
2019-04-20T06:42:31.952Z,33.60
2019-04-20T06:44:50.843Z,36.80
2019-04-20T06:47:24.989Z,39.60
2019-04-20T06:49:51.602Z,47.40
2019-04-20T06:55:02.455Z,48.10
2019-04-20T06:57:45.365Z,44.60
2019-04-20T07:00:36.869Z,46.20
2019-04-20T07:02:48.499Z,44.60
2019-04-20T07:05:27.397Z,42.20
2019-04-20T07:08:15.512Z,43.80
2019-04-20T07:10:38.117Z,45.10
2019-04-20T07:13:00.079Z,43.40
2019-04-20T07:15:46.545Z,45.30
2019-04-20T07:18:29.980Z,44.30
2019-04-20T07:21:12.733Z,42.20
2019-04-20T07:26:06.657Z,47.10
2019-04-20T07:28:41.136Z,43.70
2019-04-20T07:31:02.823Z,42.40
2019-04-20T07:33:44.630Z,38.00
2019-04-20T07:36:04.172Z,34.10
2019-04-20T07:38:41.599Z,33.90
2019-04-20T07:41:21.624Z,39.60
2019-04-20T07:44:01.701Z,36.50
2019-04-20T07:46:37.625Z,36.10
2019-04-20T07:48:55.300Z,34.60
2019-04-20T07:51:16.122Z,33.00
2019-04-20T07:54:19.357Z,32.10
2019-04-20T07:56:37.520Z,34.10
2019-04-20T07:58:52.401Z,37.20
2019-04-20T08:01:58.841Z,38.40
2019-04-20T08:04:27.246Z,38.60
2019-04-20T08:06:54.874Z,41.90
2019-04-20T08:09:29.366Z,44.60
2019-04-20T08:12:21.726Z,44.30
2019-04-20T08:14:56.801Z,42.30
2019-04-20T08:17:44.331Z,41.10
2019-04-20T08:19:50.834Z,40.40
2019-04-20T08:22:27.014Z,38.90
2019-04-20T08:24:55.264Z,38.10
2019-04-20T08:27:14.211Z,37.00
2019-04-20T08:29:57.732Z,38.50
2019-04-20T08:32:47.037Z,39.30
2019-04-20T08:35:25.944Z,39.00
2019-04-20T08:38:21.202Z,39.90
2019-04-20T08:40:33.026Z,39.90
2019-04-20T08:43:11.194Z,40.60
2019-04-20T08:45:51.079Z,40.30
2019-04-20T08:48:25.990Z,41.90
2019-04-20T08:51:00.109Z,39.60
2019-04-20T08:53:28.174Z,40.90
2019-04-20T08:55:51.470Z,40.70
2019-04-20T08:58:07.225Z,39.70
2019-04-20T09:00:46.199Z,40.00
2019-04-20T09:03:17.994Z,38.10
2019-04-20T09:05:59.519Z,36.60
2019-04-20T09:08:24.034Z,38.80
2019-04-20T09:11:05.881Z,39.30
2019-04-20T09:13:37.205Z,38.20
2019-04-20T09:16:04.256Z,38.20
2019-04-20T09:18:49.369Z,37.50
2019-04-20T09:21:32.925Z,34.80
2019-04-20T09:24:21.739Z,33.50
2019-04-20T09:26:57.274Z,32.70
2019-04-20T09:29:21.004Z,33.60
2019-04-20T09:31:52.127Z,32.60
2019-04-20T09:34:37.018Z,33.20
2019-04-20T09:37:21.729Z,34.90
2019-04-20T09:39:43.975Z,37.00
2019-04-20T09:42:14.692Z,34.40
2019-04-20T09:44:48.838Z,33.30
2019-04-20T09:47:26.468Z,34.20
2019-04-20T09:50:00.849Z,33.60
2019-04-20T09:52:38.190Z,34.90
2019-04-20T09:55:06.973Z,35.10
2019-04-20T09:57:37.968Z,35.90
2019-04-20T10:00:05.360Z,36.00
2019-04-20T10:02:27.842Z,37.80
2019-04-20T10:04:53.618Z,37.70
2019-04-20T10:07:31.163Z,38.70
2019-04-20T10:09:59.951Z,39.30
2019-04-20T10:12:29.405Z,39.40
2019-04-20T10:15:06.533Z,39.30
2019-04-20T10:17:31.720Z,40.40
2019-04-20T10:20:09.591Z,38.80
2019-04-20T10:22:33.677Z,38.70
2019-04-20T10:25:02.719Z,40.00
2019-04-20T10:27:32.773Z,39.00
2019-04-20T10:30:04.688Z,38.10
2019-04-20T10:32:40.390Z,38.50
2019-04-20T10:35:11.809Z,38.90
2019-04-20T10:37:45.235Z,38.30
2019-04-20T10:40:22.219Z,38.00
2019-04-20T10:42:45.973Z,38.30
2019-04-20T10:45:17.060Z,38.50
2019-04-20T10:47:45.748Z,36.60
2019-04-20T10:50:14.917Z,36.70
2019-04-20T10:52:47.747Z,37.30
2019-04-20T10:55:18.589Z,37.60
2019-04-20T10:57:47.555Z,36.80
2019-04-20T11:00:17.515Z,36.20
2019-04-20T11:02:48.057Z,34.20
2019-04-20T11:05:22.637Z,35.50
2019-04-20T11:07:54.727Z,34.60
2019-04-20T11:10:28.576Z,36.20
2019-04-20T11:12:54.245Z,35.40
2019-04-20T11:15:24.077Z,34.60
2019-04-20T11:17:53.440Z,35.20
2019-04-20T11:20:23.216Z,33.60
2019-04-20T11:22:58.209Z,34.00
2019-04-20T11:25:28.343Z,33.70
2019-04-20T11:27:58.728Z,32.80
2019-04-20T11:30:32.208Z,31.80
2019-04-20T11:33:02.224Z,33.70
2019-04-20T11:35:36.152Z,32.60
2019-04-20T11:38:02.853Z,32.20
2019-04-20T11:40:32.930Z,32.30
2019-04-20T11:43:01.879Z,31.20
2019-04-20T11:45:33.227Z,30.10
2019-04-20T11:48:03.203Z,30.40
2019-04-20T11:50:37.986Z,32.80
2019-04-20T11:53:06.586Z,32.00
2019-04-20T11:55:36.248Z,31.50
2019-04-20T11:58:05.914Z,30.30
2019-04-20T12:00:46.971Z,30.00
2019-04-20T12:03:23.737Z,29.40
2019-04-20T12:05:52.975Z,27.70
2019-04-20T12:08:16.694Z,26.90
2019-04-20T12:10:50.283Z,25.80
2019-04-20T12:13:16.431Z,26.50
2019-04-20T12:15:45.573Z,28.40
2019-04-20T12:18:15.735Z,28.70
2019-04-20T12:20:44.993Z,27.70
2019-04-20T12:23:14.098Z,27.50
2019-04-20T12:25:44.476Z,27.40
2019-04-20T12:28:13.736Z,28.40
2019-04-20T12:30:43.784Z,28.40
2019-04-20T12:33:13.592Z,27.60
2019-04-20T12:35:44.479Z,27.50
2019-04-20T12:38:14.629Z,28.10
2019-04-20T12:40:44.085Z,28.60
2019-04-20T12:43:13.217Z,28.60
2019-04-20T12:45:42.137Z,28.70
2019-04-20T12:48:11.442Z,27.20
2019-04-20T12:50:41.454Z,28.30
2019-04-20T12:53:13.250Z,28.10
2019-04-20T12:55:46.529Z,28.10
2019-04-20T12:58:16.736Z,28.70
2019-04-20T13:00:49.990Z,28.20
2019-04-20T13:03:19.601Z,29.10
2019-04-20T13:05:50.014Z,27.80
2019-04-20T13:08:28.443Z,28.00
2019-04-20T13:10:55.707Z,28.00
2019-04-20T13:13:30.648Z,27.00
2019-04-20T13:16:10.213Z,27.60
2019-04-20T13:18:43.526Z,28.00
2019-04-20T13:21:19.015Z,27.90
2019-04-20T13:23:48.954Z,27.40
2019-04-20T13:26:19.194Z,28.00
2019-04-20T13:28:48.758Z,27.50
2019-04-20T13:31:17.788Z,27.10
2019-04-20T13:33:47.510Z,26.30
2019-04-20T13:36:16.633Z,27.20
2019-04-20T13:38:45.896Z,27.50
2019-04-20T13:41:15.755Z,26.70
2019-04-20T13:43:45.931Z,28.10
2019-04-20T13:46:16.316Z,27.60
2019-04-20T13:48:51.034Z,27.80
2019-04-20T13:51:20.750Z,27.80
2019-04-20T13:53:53.257Z,28.10
2019-04-20T13:56:23.828Z,26.90
2019-04-20T13:58:58.060Z,26.90
2019-04-20T14:01:28.958Z,26.50
2019-04-20T14:04:05.271Z,26.90
2019-04-20T14:06:35.356Z,27.00
2019-04-20T14:09:07.439Z,26.40
2019-04-20T14:11:36.688Z,26.60
2019-04-20T14:14:08.126Z,26.10
2019-04-20T14:16:36.952Z,27.00
2019-04-20T14:19:07.059Z,26.40
2019-04-20T14:21:36.396Z,26.70
2019-04-20T14:24:08.779Z,26.70
2019-04-20T14:26:40.361Z,26.10
2019-04-20T14:29:12.729Z,25.50
2019-04-20T14:31:42.133Z,25.70
2019-04-20T14:34:15.145Z,26.30
2019-04-20T14:36:44.555Z,26.20
2019-04-20T14:39:20.290Z,26.40
2019-04-20T14:41:54.137Z,26.50
2019-04-20T14:44:27.811Z,26.80
2019-04-20T14:46:57.997Z,26.90
2019-04-20T14:49:30.614Z,27.80
2019-04-20T14:52:01.517Z,25.80
2019-04-20T14:54:39.362Z,27.00
2019-04-20T14:57:10.112Z,27.20
2019-04-20T14:59:41.333Z,26.40
2019-04-20T15:02:12.699Z,26.60
2019-04-20T15:04:45.337Z,26.30
2019-04-20T15:07:15.001Z,26.10
2019-04-20T15:09:44.667Z,26.40
2019-04-20T15:12:49.170Z,26.00
2019-04-20T15:15:10.551Z,27.10
2019-04-20T15:17:41.695Z,26.90
2019-04-20T15:20:17.308Z,25.80
2019-04-20T15:22:47.721Z,27.10
2019-04-20T15:25:17.712Z,27.30
2019-04-20T15:27:48.308Z,25.20
2019-04-20T15:30:18.337Z,25.20
2019-04-20T15:32:49.765Z,26.10
2019-04-20T15:35:25.049Z,26.10
2019-04-20T15:37:57.313Z,26.60
2019-04-20T15:40:29.345Z,26.00
2019-04-20T15:43:06.448Z,25.60
2019-04-20T15:45:29.422Z,26.40
2019-04-20T15:47:59.479Z,25.20
2019-04-20T15:50:29.694Z,25.60
2019-04-20T15:52:59.108Z,26.00
2019-04-20T15:55:32.948Z,26.00
2019-04-20T15:58:06.054Z,26.00
2019-04-20T16:00:34.151Z,26.80
2019-04-20T16:03:21.372Z,26.20
2019-04-20T16:05:53.276Z,25.40
2019-04-20T16:08:28.013Z,25.60
2019-04-20T16:10:57.305Z,26.30
2019-04-20T16:13:33.861Z,25.40
2019-04-20T16:15:58.106Z,25.70
2019-04-20T16:18:27.249Z,25.90
2019-04-20T16:21:06.237Z,26.10
2019-04-20T16:23:30.556Z,25.70
2019-04-20T16:26:01.762Z,25.70
2019-04-20T16:28:31.922Z,25.60
2019-04-20T16:31:01.457Z,25.60
2019-04-20T16:33:30.573Z,25.60
2019-04-20T16:36:00.656Z,25.50
2019-04-20T16:38:30.555Z,26.00
2019-04-20T16:41:00.042Z,25.90
2019-04-20T16:43:32.862Z,26.20
2019-04-20T16:45:59.309Z,25.80
2019-04-20T16:48:28.346Z,26.80
2019-04-20T16:50:57.048Z,27.20
2019-04-20T16:53:26.839Z,27.70
2019-04-20T16:55:56.822Z,27.50
2019-04-20T16:58:26.028Z,28.00
2019-04-20T17:00:55.913Z,27.60
2019-04-20T17:03:38.149Z,27.70
2019-04-20T17:05:55.940Z,27.40
2019-04-20T17:08:24.948Z,27.70
2019-04-20T17:10:53.947Z,28.10
2019-04-20T17:13:34.146Z,29.00
2019-04-20T17:15:53.031Z,28.60
2019-04-20T17:18:21.654Z,28.70
2019-04-20T17:20:50.644Z,28.30
2019-04-20T17:23:19.514Z,29.20
2019-04-20T17:25:55.361Z,29.80
2019-04-20T17:28:26.798Z,29.20
2019-04-20T17:31:07.186Z,29.80
2019-04-20T17:33:50.616Z,29.80
2019-04-20T17:36:15.001Z,29.50
2019-04-20T17:38:44.543Z,29.30
2019-04-20T17:41:38.834Z,29.50
2019-04-20T17:44:01.473Z,29.80
2019-04-20T17:46:27.265Z,29.80
2019-04-20T17:49:00.825Z,29.60
2019-04-20T17:51:34.391Z,29.60
2019-04-20T17:53:52.850Z,30.40
2019-04-20T17:56:17.425Z,30.70
2019-04-20T17:58:46.307Z,31.00
2019-04-20T18:01:26.614Z,31.50
2019-04-20T18:04:18.661Z,31.30
2019-04-20T18:06:41.529Z,32.00
2019-04-20T18:09:04.134Z,31.60
2019-04-20T18:11:25.289Z,32.30
2019-04-20T18:13:58.924Z,32.20
2019-04-20T18:16:46.549Z,33.00
2019-04-20T18:19:21.733Z,33.40
2019-04-20T18:21:47.686Z,33.20
2019-04-20T18:24:45.729Z,34.20
2019-04-20T18:27:18.777Z,34.30
2019-04-20T18:29:52.829Z,34.90
2019-04-20T18:32:23.357Z,35.90
2019-04-20T18:34:56.359Z,35.90
2019-04-20T18:37:26.589Z,36.20
2019-04-20T18:39:59.611Z,36.30
2019-04-20T18:42:31.333Z,36.40
2019-04-20T18:45:14.382Z,37.30
2019-04-20T18:47:45.241Z,37.20
2019-04-20T18:50:09.425Z,37.60
2019-04-20T18:52:29.520Z,38.30
2019-04-20T18:54:59.483Z,39.00
2019-04-20T18:57:30.786Z,37.90
2019-04-20T19:00:00.180Z,38.10
2019-04-20T19:02:33.422Z,39.00
2019-04-20T19:05:01.566Z,38.50
2019-04-20T19:07:34.894Z,39.10
2019-04-20T19:10:09.360Z,39.40
2019-04-20T19:12:42.483Z,40.10
2019-04-20T19:15:28.122Z,40.50
2019-04-20T19:17:50.004Z,41.10
2019-04-20T19:20:29.117Z,41.30
2019-04-20T19:22:58.073Z,41.80
2019-04-20T19:25:31.574Z,42.20
2019-04-20T19:27:59.274Z,42.60
2019-04-20T19:30:36.038Z,42.50
2019-04-20T19:33:14.932Z,42.40
2019-04-20T19:35:40.676Z,42.60
2019-04-20T19:38:09.625Z,42.70
2019-04-20T19:40:43.238Z,42.90
2019-04-20T19:43:15.668Z,43.50
2019-04-20T19:46:07.212Z,43.60
2019-04-20T19:48:21.959Z,43.80
2019-04-20T19:51:05.919Z,44.40
2019-04-20T19:53:36.541Z,44.60
2019-04-20T19:56:00.500Z,45.20
2019-04-20T19:58:28.070Z,46.50
2019-04-20T20:00:53.802Z,48.40
2019-04-20T20:03:21.991Z,48.70
2019-04-20T20:05:53.855Z,49.40
2019-04-20T20:08:26.253Z,49.10
2019-04-20T20:10:52.646Z,50.10
2019-04-20T20:13:27.655Z,49.90
2019-04-20T20:16:09.044Z,50.20
2019-04-20T20:18:47.690Z,51.50
2019-04-20T20:21:38.523Z,51.70
2019-04-20T20:23:58.179Z,51.00
2019-04-20T20:26:50.039Z,50.90
2019-04-20T20:29:28.402Z,50.80
2019-04-20T20:32:01.701Z,50.30
2019-04-20T20:34:30.963Z,50.40
2019-04-20T20:37:01.824Z,50.00
2019-04-20T20:39:30.961Z,49.80
2019-04-20T20:42:15.187Z,49.40
2019-04-20T20:44:42.858Z,49.10
2019-04-20T20:47:31.485Z,48.80
2019-04-20T20:50:08.581Z,48.40
2019-04-20T20:52:31.826Z,48.40
2019-04-20T20:55:04.675Z,48.50
2019-04-20T20:57:40.920Z,48.50
2019-04-20T21:00:12.141Z,48.90
2019-04-20T21:02:42.013Z,49.20
2019-04-20T21:05:05.870Z,49.20
2019-04-20T21:07:34.701Z,49.00
2019-04-20T21:10:06.168Z,49.20
2019-04-20T21:12:43.677Z,49.10
2019-04-20T21:15:13.359Z,49.30
2019-04-20T21:18:04.677Z,49.10
2019-04-20T21:20:20.322Z,49.20
2019-04-20T21:22:55.072Z,49.50
2019-04-20T21:25:12.971Z,49.30
2019-04-20T21:27:42.562Z,49.40
2019-04-20T21:30:18.453Z,49.50
2019-04-20T21:32:45.686Z,49.70
2019-04-20T21:35:15.516Z,49.80
2019-04-20T21:37:52.594Z,49.80
2019-04-20T21:40:25.144Z,50.10
2019-04-20T21:42:52.491Z,50.50
2019-04-20T21:45:24.840Z,49.50
2019-04-20T21:47:50.284Z,50.10
2019-04-20T21:50:36.232Z,50.50
2019-04-20T21:52:58.578Z,50.40
2019-04-20T21:55:30.058Z,50.60
2019-04-20T21:58:01.875Z,49.80
2019-04-20T22:01:06.140Z,50.00
2019-04-20T22:03:24.741Z,50.30
2019-04-20T22:06:02.580Z,50.40
2019-04-20T22:08:32.680Z,50.50
2019-04-20T22:11:03.848Z,50.60
2019-04-20T22:13:42.077Z,50.90
2019-04-20T22:16:12.237Z,50.90
2019-04-20T22:18:48.560Z,51.20
2019-04-20T22:21:21.344Z,51.10
2019-04-20T22:23:59.876Z,51.50
2019-04-20T22:26:26.237Z,52.20
2019-04-20T22:28:52.150Z,52.40
2019-04-20T22:31:29.794Z,52.20
2019-04-20T22:34:00.797Z,52.90
2019-04-20T22:36:35.499Z,53.40
2019-04-20T22:39:13.775Z,53.10
2019-04-20T22:41:59.067Z,53.20
2019-04-20T22:44:26.592Z,54.10
2019-04-20T22:46:54.351Z,54.40
2019-04-20T22:49:39.923Z,54.60
2019-04-20T22:52:05.900Z,54.20
2019-04-20T22:54:49.421Z,54.90
2019-04-20T22:57:12.855Z,55.40
2019-04-20T22:59:41.852Z,55.30
2019-04-20T23:02:06.537Z,54.80
2019-04-20T23:04:37.104Z,55.20
2019-04-20T23:07:06.299Z,55.40
2019-04-20T23:09:50.381Z,55.40
2019-04-20T23:12:17.816Z,56.70
2019-04-20T23:14:44.753Z,56.60
2019-04-20T23:17:18.446Z,57.30
2019-04-20T23:19:52.851Z,56.30
2019-04-20T23:22:23.070Z,56.40
2019-04-20T23:24:53.318Z,55.60
2019-04-20T23:27:31.253Z,56.90
2019-04-20T23:29:58.354Z,58.20
2019-04-20T23:32:30.058Z,57.40
2019-04-20T23:35:08.252Z,58.00
2019-04-20T23:37:38.530Z,58.50
2019-04-20T23:40:16.424Z,58.30
2019-04-20T23:42:58.020Z,58.60
2019-04-20T23:45:35.507Z,58.70
2019-04-20T23:48:04.322Z,58.10
2019-04-20T23:50:49.063Z,58.20
2019-04-20T23:53:19.868Z,60.00
2019-04-20T23:55:31.918Z,60.90
2019-04-20T23:58:04.998Z,61.80
